createdAt,value
2023-04-01T00:41:22.367Z,10.60
2023-04-01T00:43:52.390Z,10.60
2023-04-01T00:46:20.491Z,10.50
2023-04-01T00:48:55.349Z,10.40
2023-04-01T00:51:30.678Z,10.50
2023-04-01T00:54:00.307Z,10.40
2023-04-01T00:56:33.834Z,10.30
2023-04-01T00:59:06.794Z,10.30
2023-04-01T01:01:34.576Z,10.30
2023-04-01T01:06:59.394Z,10.40
2023-04-01T01:09:36.780Z,10.30
2023-04-01T01:12:27.121Z,10.50
2023-04-01T01:15:17.237Z,10.40
2023-04-01T01:20:35.573Z,10.40
2023-04-01T01:23:08.216Z,10.40
2023-04-01T01:28:41.134Z,10.40
2023-04-01T01:31:27.524Z,10.40
2023-04-01T01:36:43.634Z,10.50
2023-04-01T01:39:12.093Z,10.50
2023-04-01T01:41:43.185Z,10.40
2023-04-01T01:44:12.931Z,10.40
2023-04-01T01:46:42.386Z,10.40
2023-04-01T01:49:12.915Z,10.30
2023-04-01T01:56:36.940Z,10.20
2023-04-01T01:59:11.380Z,10.30
2023-04-01T02:01:44.064Z,10.20
2023-04-01T02:04:14.307Z,10.20
2023-04-01T02:06:49.153Z,10.20
2023-04-01T02:12:07.877Z,10.10
2023-04-01T02:14:43.079Z,10.00
2023-04-01T02:17:21.174Z,10.10
2023-04-01T02:22:23.453Z,10.10
2023-04-01T02:24:55.814Z,10.00
2023-04-01T02:29:52.125Z,10.00
2023-04-01T02:32:20.885Z,10.00
2023-04-01T02:34:49.540Z,10.50
2023-04-01T03:41:16.877Z,9.70
2023-04-01T03:51:09.875Z,9.80
2023-04-01T03:56:09.181Z,9.70
2023-04-01T03:58:37.725Z,9.60
2023-04-01T04:06:13.450Z,9.70
2023-04-01T04:11:08.617Z,9.70
2023-04-01T04:16:05.060Z,9.50
2023-04-01T04:26:07.840Z,9.90
2023-04-01T04:31:05.926Z,9.90
2023-04-01T04:36:01.347Z,9.80
2023-04-01T04:50:51.219Z,9.80
2023-04-01T04:53:20.143Z,9.70
2023-04-01T04:55:51.243Z,9.60
2023-04-01T04:58:19.079Z,9.60
2023-04-01T05:00:46.970Z,9.60
2023-04-01T05:20:53.942Z,9.50
2023-04-01T05:23:22.769Z,9.40
2023-04-01T05:25:52.024Z,9.60
2023-04-01T05:38:09.735Z,9.40
2023-04-01T05:48:00.568Z,9.40
2023-04-01T06:00:18.400Z,9.30
2023-04-01T06:02:45.483Z,9.40
2023-04-01T06:05:23.487Z,9.40
2023-04-01T06:07:59.136Z,9.50
2023-04-01T06:10:49.899Z,9.50
2023-04-01T06:14:00.131Z,9.40
2023-04-01T06:16:56.063Z,9.40
2023-04-01T06:19:46.651Z,9.40
2023-04-01T06:23:20.258Z,9.60
2023-04-01T06:26:02.726Z,9.50
2023-04-01T06:28:41.212Z,9.40
2023-04-01T06:31:23.097Z,9.60
2023-04-01T06:36:35.417Z,9.50
2023-04-01T06:41:56.232Z,9.40
2023-04-01T06:44:47.103Z,9.50
2023-04-01T06:47:19.752Z,9.40
2023-04-01T06:50:16.627Z,9.50
2023-04-01T06:53:23.343Z,9.40
2023-04-01T06:55:58.840Z,9.50
2023-04-01T06:58:51.063Z,9.40
2023-04-01T07:01:40.756Z,9.40
2023-04-01T07:04:32.775Z,9.30
2023-04-01T07:07:38.062Z,9.30
2023-04-01T07:10:13.267Z,11.00
2023-04-01T07:12:54.268Z,9.20
2023-04-01T07:15:29.834Z,9.20
2023-04-01T07:18:08.327Z,9.20
2023-04-01T07:20:38.468Z,9.20
2023-04-01T07:23:27.648Z,9.30
2023-04-01T07:26:05.708Z,9.30
2023-04-01T07:28:36.911Z,9.30
2023-04-01T07:31:42.339Z,9.30
2023-04-01T07:34:28.874Z,9.30
2023-04-01T07:37:11.479Z,9.50
2023-04-01T07:39:52.422Z,9.50
2023-04-01T07:42:34.070Z,9.50
2023-04-01T07:45:51.174Z,9.60
2023-04-01T07:48:51.927Z,9.70
2023-04-01T07:51:45.510Z,9.80
2023-04-01T07:54:47.786Z,9.80
2023-04-01T07:57:35.688Z,9.80
2023-04-01T08:00:19.750Z,9.80
2023-04-01T08:03:21.200Z,9.80
2023-04-01T08:06:16.432Z,9.80
2023-04-01T08:09:21.737Z,9.70
2023-04-01T08:12:03.647Z,9.70
2023-04-01T08:17:27.038Z,9.70
2023-04-01T08:20:27.554Z,9.70
2023-04-01T08:23:11.464Z,9.70
2023-04-01T08:26:06.451Z,9.70
2023-04-01T08:29:21.982Z,9.70
2023-04-01T08:31:57.873Z,9.50
2023-04-01T08:34:33.036Z,9.70
2023-04-01T08:37:09.671Z,9.70
2023-04-01T08:39:45.287Z,9.80
2023-04-01T08:42:44.467Z,9.80
2023-04-01T08:48:52.852Z,10.00
2023-04-01T08:52:16.897Z,10.00
2023-04-01T08:55:22.596Z,10.10
2023-04-01T08:58:20.795Z,10.20
2023-04-01T09:01:24.413Z,10.30
2023-04-01T09:04:26.492Z,10.40
2023-04-01T09:07:34.866Z,10.40
2023-04-01T09:10:22.681Z,9.60
2023-04-01T09:13:27.237Z,10.50
2023-04-01T09:16:21.942Z,10.50
2023-04-01T09:19:11.885Z,10.50
2023-04-01T09:27:25.748Z,10.70
2023-04-01T09:30:49.672Z,10.80
2023-04-01T09:34:09.465Z,10.90
2023-04-01T09:39:38.282Z,11.00
2023-04-01T09:44:45.542Z,11.00
2023-04-01T09:48:23.721Z,11.00
2023-04-01T09:53:48.431Z,11.20
2023-04-01T09:56:54.451Z,11.30
2023-04-01T09:59:40.035Z,11.20
2023-04-01T10:02:42.322Z,11.30
2023-04-01T10:05:18.448Z,11.30
2023-04-01T10:08:09.198Z,11.30
2023-04-01T10:11:22.158Z,11.30
2023-04-01T10:14:36.405Z,11.30
2023-04-01T10:17:42.082Z,11.30
2023-04-01T10:20:49.844Z,11.40
2023-04-01T10:26:19.691Z,11.50
2023-04-01T10:29:03.883Z,11.50
2023-04-01T10:32:09.578Z,11.50
2023-04-01T10:35:36.025Z,11.60
2023-04-01T10:38:56.860Z,11.60
2023-04-01T10:41:36.445Z,11.60
2023-04-01T10:44:35.018Z,11.60
2023-04-01T10:47:19.854Z,11.80
2023-04-01T10:50:06.119Z,11.80
2023-04-01T10:53:16.681Z,11.80
2023-04-01T10:56:05.724Z,11.70
2023-04-01T10:59:10.064Z,11.70
2023-04-01T11:02:10.031Z,11.70
2023-04-01T11:05:25.498Z,11.60
2023-04-01T11:11:12.766Z,11.80
2023-04-01T11:13:57.345Z,11.70
2023-04-01T11:17:10.310Z,11.70
2023-04-01T11:20:07.602Z,11.60
2023-04-01T11:25:44.390Z,11.50
2023-04-01T11:28:28.045Z,11.50
2023-04-01T11:31:25.005Z,11.40
2023-04-01T11:34:33.222Z,11.50
2023-04-01T11:40:28.048Z,11.60
2023-04-01T11:46:11.807Z,11.70
2023-04-01T11:49:24.866Z,11.70
2023-04-01T11:52:38.641Z,11.80
2023-04-01T11:55:53.478Z,11.90
2023-04-01T11:58:34.281Z,11.80
2023-04-01T12:01:39.282Z,11.80
2023-04-01T12:05:02.270Z,11.90
2023-04-01T12:08:05.442Z,11.80
2023-04-01T12:10:48.242Z,11.80
2023-04-01T12:13:43.707Z,11.90
2023-04-01T12:16:26.370Z,11.90
2023-04-01T12:19:26.104Z,11.90
2023-04-01T12:22:46.286Z,11.90
2023-04-01T12:25:44.733Z,12.10
2023-04-01T12:29:08.114Z,12.10
2023-04-01T12:32:06.468Z,12.00
2023-04-01T12:37:48.690Z,11.90
2023-04-01T12:40:37.467Z,12.00
2023-04-01T12:43:42.034Z,11.90
2023-04-01T12:46:24.173Z,11.90
2023-04-01T12:49:30.312Z,11.90
2023-04-01T12:52:24.884Z,11.80
2023-04-01T12:57:55.761Z,11.70
2023-04-01T13:00:45.199Z,11.70
2023-04-01T13:03:25.004Z,11.70
2023-04-01T13:06:35.437Z,11.60
2023-04-01T13:12:19.851Z,11.80
2023-04-01T13:15:23.393Z,11.90
2023-04-01T13:18:06.343Z,11.80
2023-04-01T13:21:01.057Z,11.80
2023-04-01T13:24:02.373Z,11.90
2023-04-01T13:27:10.704Z,12.00
2023-04-01T13:29:41.880Z,11.90
2023-04-01T13:32:40.749Z,12.00
2023-04-01T13:35:56.782Z,12.00
2023-04-01T13:38:53.866Z,11.90
2023-04-01T13:41:48.962Z,11.80
2023-04-01T13:44:55.116Z,13.10
2023-04-01T13:47:55.041Z,11.80
2023-04-01T13:53:22.516Z,11.90
2023-04-01T13:59:06.674Z,11.90
2023-04-01T14:01:37.224Z,11.90
2023-04-01T14:04:24.908Z,11.90
2023-04-01T14:07:36.359Z,12.00
2023-04-01T14:10:44.376Z,11.90
2023-04-01T14:16:39.927Z,12.20
2023-04-01T14:19:43.857Z,12.20
2023-04-01T14:23:01.709Z,12.10
2023-04-01T14:25:44.730Z,12.30
2023-04-01T14:29:11.142Z,12.20
2023-04-01T14:32:01.336Z,12.30
2023-04-01T14:34:45.624Z,12.20
2023-04-01T14:37:56.406Z,12.30
2023-04-01T14:41:17.808Z,12.20
2023-04-01T14:44:15.512Z,12.30
2023-04-01T14:50:11.862Z,12.10
2023-04-01T14:52:45.767Z,12.20
2023-04-01T14:55:28.991Z,12.40
2023-04-01T14:58:26.372Z,12.40
2023-04-01T15:01:15.102Z,12.50
2023-04-01T15:04:30.570Z,12.70
2023-04-01T15:07:22.565Z,13.10
2023-04-01T15:10:41.882Z,13.00
2023-04-01T15:13:29.951Z,12.90
2023-04-01T15:16:36.232Z,13.20
2023-04-01T15:19:24.631Z,13.40
2023-04-01T15:22:14.849Z,13.30
2023-04-01T15:25:19.943Z,13.40
2023-04-01T15:30:45.868Z,13.10
2023-04-01T15:33:33.592Z,13.00
2023-04-01T15:41:40.000Z,12.80
2023-04-01T15:44:59.627Z,12.40
2023-04-01T15:53:36.910Z,12.90
2023-04-01T15:56:58.485Z,13.30
2023-04-01T16:00:15.696Z,13.70
2023-04-01T16:08:39.672Z,13.30
2023-04-01T16:13:43.953Z,13.50
2023-04-01T16:16:44.783Z,13.50
2023-04-01T16:19:58.273Z,13.50
2023-04-01T16:22:50.433Z,13.30
2023-04-01T16:25:42.996Z,13.10
2023-04-01T16:28:35.771Z,12.80
2023-04-01T16:31:28.136Z,12.80
2023-04-01T16:34:09.859Z,12.70
2023-04-01T16:36:50.047Z,12.80
2023-04-01T16:42:27.186Z,12.90
2023-04-01T16:47:49.808Z,13.20
2023-04-01T16:50:43.384Z,11.80
2023-04-01T16:53:20.047Z,12.90
2023-04-01T16:56:06.054Z,13.10
2023-04-01T16:59:15.698Z,13.10
2023-04-01T17:02:12.616Z,12.50
2023-04-01T17:04:58.774Z,12.60
2023-04-01T17:07:59.669Z,12.50
2023-04-01T17:11:02.642Z,12.20
2023-04-01T17:14:08.452Z,12.20
2023-04-01T17:17:05.635Z,12.20
2023-04-01T17:22:42.801Z,12.00
2023-04-01T17:25:32.369Z,11.90
2023-04-01T17:28:50.757Z,10.70
2023-04-01T17:32:07.607Z,11.60
2023-04-01T17:34:56.527Z,11.50
2023-04-01T17:37:53.074Z,11.40
2023-04-01T17:40:43.878Z,11.40
2023-04-01T17:43:34.678Z,11.30
2023-04-01T17:46:52.183Z,11.30
2023-04-01T17:49:55.726Z,11.10
2023-04-01T17:52:41.177Z,11.10
2023-04-01T17:55:29.308Z,11.10
2023-04-01T17:58:18.011Z,11.10
2023-04-01T18:01:37.520Z,11.00
2023-04-01T18:04:37.982Z,11.10
2023-04-01T18:07:51.736Z,11.00
2023-04-01T18:10:41.509Z,10.90
2023-04-01T18:16:03.942Z,10.90
2023-04-01T18:18:46.697Z,10.80
2023-04-01T18:21:49.073Z,10.80
2023-04-01T18:24:48.742Z,10.80
2023-04-01T18:28:15.391Z,10.80
2023-04-01T18:33:24.392Z,10.70
2023-04-01T18:38:42.994Z,10.70
2023-04-01T18:41:35.812Z,10.70
2023-04-01T18:44:26.988Z,10.70
2023-04-01T18:47:44.550Z,10.70
2023-04-01T18:50:51.953Z,10.70
2023-04-01T18:56:12.034Z,10.50
2023-04-01T18:59:28.439Z,10.60
2023-04-01T19:02:28.963Z,10.50
2023-04-01T19:05:11.748Z,10.60
2023-04-01T19:10:52.276Z,10.50
2023-04-01T19:13:44.641Z,10.60
2023-04-01T19:18:51.130Z,10.50
2023-04-01T19:21:21.166Z,10.40
2023-04-01T19:24:13.569Z,10.30
2023-04-01T19:27:19.296Z,10.50
2023-04-01T19:30:14.963Z,10.50
2023-04-01T19:33:03.233Z,10.50
2023-04-01T19:38:36.212Z,10.50
2023-04-01T19:41:21.283Z,10.50
2023-04-01T19:49:46.670Z,10.40
2023-04-01T19:52:33.422Z,10.40
2023-04-01T19:55:38.786Z,10.40
2023-04-01T20:00:52.585Z,10.30
2023-04-01T20:03:48.039Z,10.40
2023-04-01T20:06:37.861Z,10.30
2023-04-01T20:09:51.449Z,10.40
2023-04-01T20:12:48.094Z,10.30
2023-04-01T20:15:44.638Z,10.30
2023-04-01T20:18:41.270Z,10.30
2023-04-01T20:21:44.706Z,10.30
2023-04-01T20:24:14.724Z,10.30
2023-04-01T20:27:14.141Z,10.20
2023-04-01T20:30:25.693Z,10.20
2023-04-01T20:33:34.950Z,10.30
2023-04-01T20:36:44.743Z,10.30
2023-04-01T20:39:35.840Z,10.20
2023-04-01T20:42:28.130Z,10.20
2023-04-01T20:48:16.332Z,10.20
2023-04-01T20:51:05.947Z,10.20
2023-04-01T20:53:44.744Z,10.10
2023-04-01T20:56:28.816Z,10.20
2023-04-01T20:59:28.788Z,10.20
2023-04-01T21:02:26.240Z,10.10
2023-04-01T21:05:35.227Z,10.10
2023-04-01T21:11:33.090Z,10.10
2023-04-01T21:14:14.748Z,10.10
2023-04-01T21:17:15.487Z,10.00
2023-04-01T21:20:43.358Z,10.00
2023-04-01T21:25:48.807Z,9.90
2023-04-01T21:28:57.848Z,10.00
2023-04-01T21:32:16.124Z,10.00
2023-04-01T21:35:21.475Z,10.00
2023-04-01T21:38:16.789Z,9.90
2023-04-01T21:44:11.570Z,9.90
2023-04-01T21:46:52.253Z,10.00
2023-04-01T21:49:25.449Z,10.00
2023-04-01T21:52:13.163Z,10.00
2023-04-01T21:55:04.362Z,10.10
2023-04-01T21:58:08.049Z,10.00
2023-04-01T22:00:58.343Z,9.90
2023-04-01T22:04:08.784Z,10.10
2023-04-01T22:07:15.646Z,10.10
2023-04-01T22:10:20.657Z,10.10
2023-04-01T22:13:06.396Z,10.10
2023-04-01T22:16:04.169Z,10.00
2023-04-01T22:21:14.209Z,10.10
2023-04-01T22:23:59.726Z,10.10
2023-04-01T22:26:35.389Z,10.10
2023-04-01T22:29:17.162Z,10.10
2023-04-01T22:32:12.796Z,10.00
2023-04-01T22:35:08.755Z,9.90
2023-04-01T22:40:53.633Z,9.90
2023-04-01T22:43:40.820Z,9.90
2023-04-01T22:46:31.731Z,9.90
2023-04-01T22:49:17.509Z,9.80
2023-04-01T22:51:57.983Z,9.80
2023-04-01T22:54:55.505Z,9.80
2023-04-01T23:00:16.192Z,9.70
2023-04-01T23:03:20.694Z,9.70
2023-04-01T23:05:58.843Z,9.80
2023-04-01T23:08:37.642Z,9.70
2023-04-01T23:11:09.261Z,9.70
2023-04-01T23:13:42.752Z,9.70
2023-04-01T23:16:11.201Z,9.70
2023-04-01T23:19:19.139Z,9.70
2023-04-01T23:22:20.997Z,8.30
2023-04-01T23:25:16.840Z,9.60
2023-04-01T23:28:10.881Z,9.70
2023-04-01T23:30:40.960Z,9.70
2023-04-01T23:33:19.793Z,9.70
2023-04-01T23:36:06.267Z,9.70
2023-04-01T23:38:42.692Z,9.70
2023-04-01T23:41:32.401Z,9.60
2023-04-01T23:44:14.965Z,9.70
2023-04-01T23:46:45.934Z,9.60
2023-04-01T23:49:23.173Z,9.40
2023-04-01T23:52:25.375Z,9.40
2023-04-01T23:55:15.369Z,9.50
